createdAt,value
2023-01-08T00:00:54.936Z,74.33
2023-01-08T00:01:54.866Z,74.43
2023-01-08T00:02:54.840Z,74.43
2023-01-08T00:03:55.074Z,74.46
2023-01-08T00:04:54.779Z,74.77
2023-01-08T00:05:54.761Z,74.98
2023-01-08T00:06:54.755Z,75.18
2023-01-08T00:07:54.756Z,75.52
2023-01-08T00:08:54.719Z,75.52
2023-01-08T00:09:54.725Z,75.42
2023-01-08T00:10:54.689Z,75.42
2023-01-08T00:11:54.694Z,75.52
2023-01-08T00:12:54.699Z,75.63
2023-01-08T00:13:54.674Z,75.73
2023-01-08T00:14:54.636Z,75.63
2023-01-08T00:15:54.640Z,75.42
2023-01-08T00:16:54.697Z,75.42
2023-01-08T00:17:54.651Z,75.42
2023-01-08T00:18:54.628Z,75.32
2023-01-08T00:19:54.621Z,75.32
2023-01-08T00:20:54.578Z,75.22
2023-01-08T00:21:54.578Z,75.01
2023-01-08T00:22:54.552Z,74.91
2023-01-08T00:23:54.588Z,74.80
2023-01-08T00:24:54.569Z,74.91
2023-01-08T00:25:54.518Z,74.60
2023-01-08T00:26:54.501Z,74.67
2023-01-08T00:27:54.498Z,74.57
2023-01-08T00:28:54.512Z,74.80
2023-01-08T00:29:54.515Z,74.40
2023-01-08T00:30:54.528Z,74.15
2023-01-08T00:31:54.448Z,74.05
2023-01-08T00:32:54.438Z,73.85
2023-01-08T00:33:54.459Z,73.64
2023-01-08T00:34:54.452Z,73.54
2023-01-08T00:35:54.424Z,73.64
2023-01-08T00:36:54.381Z,73.64
2023-01-08T00:37:54.376Z,73.64
2023-01-08T00:38:54.353Z,73.64
2023-01-08T00:39:54.389Z,73.74
2023-01-08T00:40:54.380Z,73.85
2023-01-08T00:41:54.383Z,73.64
2023-01-08T00:42:54.324Z,73.74
2023-01-08T00:43:54.328Z,73.33
2023-01-08T00:44:54.296Z,73.23
2023-01-08T00:45:54.371Z,72.92
2023-01-08T00:46:54.286Z,72.89
2023-01-08T00:47:54.254Z,72.78
2023-01-08T00:48:54.269Z,72.99
2023-01-08T00:49:54.248Z,72.89
2023-01-08T00:50:54.239Z,72.89
2023-01-08T00:51:54.277Z,73.02
2023-01-08T00:52:54.249Z,72.92
2023-01-08T00:53:54.195Z,72.68
2023-01-08T00:54:54.180Z,72.47
2023-01-08T00:55:54.166Z,72.17
2023-01-08T00:56:54.178Z,72.17
2023-01-08T00:57:54.168Z,72.06
2023-01-08T00:58:54.181Z,71.96
2023-01-08T00:59:54.140Z,71.86
2023-01-08T01:00:54.159Z,71.45
2023-01-08T01:01:54.182Z,71.00
2023-01-08T01:02:54.096Z,70.90
2023-01-08T01:03:54.124Z,70.70
2023-01-08T01:04:54.068Z,70.70
2023-01-08T01:05:54.072Z,70.70
2023-01-08T01:06:54.050Z,70.70
2023-01-08T01:07:54.079Z,70.79
2023-01-08T01:08:54.054Z,70.90
2023-01-08T01:09:54.000Z,71.11
2023-01-08T01:10:54.003Z,71.31
2023-01-08T01:11:54.016Z,71.55
2023-01-08T01:12:54.044Z,71.34
2023-01-08T01:13:53.992Z,71.45
2023-01-08T01:14:53.956Z,71.66
2023-01-08T01:15:53.964Z,71.66
2023-01-08T01:16:53.964Z,71.55
2023-01-08T01:17:53.922Z,71.86
2023-01-08T01:18:53.943Z,72.06
2023-01-08T01:19:53.905Z,72.27
2023-01-08T01:20:53.896Z,72.47
2023-01-08T01:21:53.895Z,72.81
2023-01-08T01:22:53.872Z,72.72
2023-01-08T01:23:53.885Z,72.41
2023-01-08T01:24:53.874Z,72.61
2023-01-08T01:25:53.813Z,72.72
2023-01-08T01:26:53.850Z,72.61
2023-01-08T01:27:53.785Z,72.51
2023-01-08T01:28:53.819Z,72.72
2023-01-08T01:29:53.780Z,72.72
2023-01-08T01:30:53.805Z,72.81
2023-01-08T01:31:53.793Z,73.02
2023-01-08T01:32:53.754Z,73.33
2023-01-08T01:33:53.744Z,73.68
2023-01-08T01:34:53.757Z,73.98
2023-01-08T01:35:53.738Z,74.29
2023-01-08T01:36:53.705Z,74.53
2023-01-08T01:37:53.689Z,74.74
2023-01-08T01:38:53.666Z,74.84
2023-01-08T01:39:53.674Z,75.05
2023-01-08T01:40:53.690Z,75.25
2023-01-08T01:41:53.673Z,75.46
2023-01-08T01:42:53.636Z,75.46
2023-01-08T01:43:53.670Z,75.46
2023-01-08T01:44:53.612Z,75.35
2023-01-08T01:45:53.643Z,75.49
2023-01-08T01:46:53.652Z,75.60
2023-01-08T01:47:53.611Z,75.70
2023-01-08T01:48:53.541Z,75.70
2023-01-08T01:49:53.566Z,75.08
2023-01-08T01:50:53.541Z,74.33
2023-01-08T01:51:53.524Z,73.81
2023-01-08T01:52:53.512Z,73.36
2023-01-08T01:53:53.570Z,72.85
2023-01-08T01:54:53.515Z,72.72
2023-01-08T01:55:53.487Z,72.41
2023-01-08T01:56:53.470Z,71.89
2023-01-08T01:57:53.478Z,71.89
2023-01-08T01:58:53.456Z,71.79
2023-01-08T01:59:53.470Z,72.00
2023-01-08T02:00:53.486Z,72.09
2023-01-08T02:01:53.495Z,72.20
2023-01-08T02:02:53.413Z,72.41
2023-01-08T02:03:53.453Z,72.61
2023-01-08T02:04:53.366Z,72.72
2023-01-08T02:05:53.423Z,73.06
2023-01-08T02:06:53.340Z,73.16
2023-01-08T02:07:53.364Z,73.26
2023-01-08T02:08:53.325Z,73.47
2023-01-08T02:09:53.329Z,73.57
2023-01-08T02:10:53.306Z,73.78
2023-01-08T02:11:53.339Z,73.88
2023-01-08T02:12:53.293Z,73.98
2023-01-08T02:13:53.252Z,73.98
2023-01-08T02:14:53.271Z,74.19
2023-01-08T02:15:53.272Z,74.33
2023-01-08T02:16:53.292Z,74.43
2023-01-08T02:17:53.267Z,74.53
2023-01-08T02:18:53.197Z,74.53
2023-01-08T02:19:53.199Z,74.53
2023-01-08T02:20:53.196Z,74.63
2023-01-08T02:21:53.177Z,74.74
2023-01-08T02:22:53.204Z,74.84
2023-01-08T02:23:53.137Z,74.84
2023-01-08T02:24:53.125Z,74.95
2023-01-08T02:25:53.128Z,74.95
2023-01-08T02:26:53.101Z,75.05
2023-01-08T02:27:53.160Z,75.18
2023-01-08T02:28:53.099Z,75.29
2023-01-08T02:29:53.093Z,75.49
2023-01-08T02:30:53.109Z,75.60
2023-01-08T02:31:53.069Z,75.70
2023-01-08T02:32:53.091Z,75.70
2023-01-08T02:33:53.037Z,75.81
2023-01-08T02:34:53.074Z,75.84
2023-01-08T02:35:53.030Z,75.94
2023-01-08T02:36:52.998Z,76.25
2023-01-08T02:37:53.045Z,76.35
2023-01-08T02:38:52.977Z,76.35
2023-01-08T02:39:52.981Z,76.35
2023-01-08T02:40:52.979Z,76.46
2023-01-08T02:41:53.011Z,76.46
2023-01-08T02:42:52.924Z,76.66
2023-01-08T02:43:52.899Z,76.76
2023-01-08T02:44:52.921Z,76.97
2023-01-08T02:45:52.948Z,77.01
2023-01-08T02:46:52.892Z,76.97
2023-01-08T02:47:52.888Z,77.11
2023-01-08T02:48:52.862Z,77.22
2023-01-08T02:49:52.861Z,77.11
2023-01-08T02:50:52.832Z,77.01
2023-01-08T02:51:52.833Z,77.11
2023-01-08T02:52:52.859Z,77.31
2023-01-08T02:53:52.825Z,77.31
2023-01-08T02:54:52.772Z,77.22
2023-01-08T02:55:52.814Z,77.31
2023-01-08T02:56:52.893Z,77.52
2023-01-08T02:57:52.845Z,77.52
2023-01-08T02:58:52.792Z,77.66
2023-01-08T02:59:52.768Z,77.76
2023-01-08T03:00:52.726Z,77.87
2023-01-08T03:01:52.857Z,77.97
2023-01-08T03:02:52.684Z,78.08
2023-01-08T03:03:52.721Z,78.18
2023-01-08T03:04:52.764Z,78.18
2023-01-08T03:05:52.645Z,78.42
2023-01-08T03:06:52.657Z,78.42
2023-01-08T03:07:52.648Z,78.42
2023-01-08T03:08:52.647Z,78.42
2023-01-08T03:09:52.617Z,78.42
2023-01-08T03:10:52.661Z,78.63
2023-01-08T03:11:52.586Z,78.52
2023-01-08T03:12:52.576Z,78.28
2023-01-08T03:13:52.599Z,78.18
2023-01-08T03:14:52.544Z,78.28
2023-01-08T03:15:52.546Z,78.38
2023-01-08T03:16:52.686Z,78.38
2023-01-08T03:17:52.526Z,78.18
2023-01-08T03:18:52.537Z,78.08
2023-01-08T03:19:52.529Z,78.18
2023-01-08T03:20:52.502Z,78.38
2023-01-08T03:21:52.516Z,78.59
2023-01-08T03:22:52.486Z,78.59
2023-01-08T03:23:52.461Z,78.63
2023-01-08T03:24:52.467Z,78.73
2023-01-08T03:25:52.440Z,78.63
2023-01-08T03:26:52.444Z,78.63
2023-01-08T03:27:52.437Z,78.73
2023-01-08T03:28:52.394Z,78.63
2023-01-08T03:29:52.409Z,78.63
2023-01-08T03:30:52.405Z,78.73
2023-01-08T03:31:52.384Z,78.94
2023-01-08T03:32:52.470Z,79.04
2023-01-08T03:33:52.341Z,78.83
2023-01-08T03:34:52.331Z,78.73
2023-01-08T03:35:52.336Z,78.73
2023-01-08T03:36:52.306Z,78.73
2023-01-08T03:37:52.304Z,78.73
2023-01-08T03:38:52.317Z,78.83
2023-01-08T03:39:52.267Z,78.52
2023-01-08T03:40:52.278Z,78.42
2023-01-08T03:41:52.266Z,78.38
2023-01-08T03:42:52.222Z,78.28
2023-01-08T03:43:52.203Z,78.18
2023-01-08T03:44:52.247Z,78.08
2023-01-08T03:45:52.253Z,78.08
2023-01-08T03:46:52.174Z,78.08
2023-01-08T03:47:52.195Z,77.97
2023-01-08T03:48:52.155Z,78.08
2023-01-08T03:49:52.145Z,78.08
2023-01-08T03:50:52.177Z,78.08
2023-01-08T03:51:52.106Z,78.08
2023-01-08T03:52:52.125Z,78.18
2023-01-08T03:53:52.127Z,78.28
2023-01-08T03:54:52.121Z,78.08
2023-01-08T03:55:52.084Z,78.18
2023-01-08T03:56:52.151Z,78.42
2023-01-08T03:57:52.063Z,78.52
2023-01-08T03:58:52.069Z,78.42
2023-01-08T03:59:52.034Z,78.42
2023-01-08T04:00:51.987Z,78.42
2023-01-08T04:01:52.194Z,78.52
2023-01-08T04:02:51.987Z,78.73
2023-01-08T04:03:51.996Z,78.63
2023-01-08T04:04:51.959Z,78.52
2023-01-08T04:05:51.989Z,78.31
2023-01-08T04:06:51.972Z,78.28
2023-01-08T04:07:51.965Z,78.18
2023-01-08T04:08:51.919Z,78.18
2023-01-08T04:09:51.893Z,78.18
2023-01-08T04:10:51.930Z,78.18
2023-01-08T04:11:51.885Z,78.18
2023-01-08T04:12:51.907Z,78.08
2023-01-08T04:13:51.894Z,78.08
2023-01-08T04:14:51.861Z,77.97
2023-01-08T04:15:51.942Z,77.97
2023-01-08T04:16:51.860Z,77.87
2023-01-08T04:17:51.826Z,77.76
2023-01-08T04:18:51.804Z,77.66
2023-01-08T04:19:51.829Z,77.66
2023-01-08T04:20:51.774Z,77.56
2023-01-08T04:21:51.816Z,77.45
2023-01-08T04:22:51.752Z,77.56
2023-01-08T04:23:51.752Z,77.76
2023-01-08T04:24:51.767Z,78.08
2023-01-08T04:25:51.739Z,78.08
2023-01-08T04:26:51.726Z,78.28
2023-01-08T04:27:51.743Z,78.49
2023-01-08T04:28:51.702Z,78.59
2023-01-08T04:29:51.693Z,78.69
2023-01-08T04:30:51.709Z,78.69
2023-01-08T04:31:51.657Z,78.69
2023-01-08T04:32:51.624Z,78.80
2023-01-08T04:33:51.665Z,78.69
2023-01-08T04:34:51.643Z,78.59
2023-01-08T04:35:51.646Z,78.59
2023-01-08T04:36:51.579Z,79.00
2023-01-08T04:37:51.578Z,78.80
2023-01-08T04:38:51.569Z,78.59
2023-01-08T04:39:51.577Z,78.80
2023-01-08T04:40:51.537Z,78.80
2023-01-08T04:41:51.599Z,78.69
2023-01-08T04:42:51.553Z,78.59
2023-01-08T04:43:51.519Z,78.49
2023-01-08T04:44:51.493Z,78.49
2023-01-08T04:45:51.517Z,78.59
2023-01-08T04:46:51.500Z,78.49
2023-01-08T04:47:51.478Z,78.38
2023-01-08T04:48:51.451Z,78.38
2023-01-08T04:49:51.449Z,78.38
2023-01-08T04:50:51.449Z,78.49
2023-01-08T04:51:51.448Z,78.59
2023-01-08T04:52:51.396Z,78.49
2023-01-08T04:53:51.390Z,78.49
2023-01-08T04:54:51.406Z,78.69
2023-01-08T04:55:51.380Z,78.69
2023-01-08T04:56:51.338Z,78.90
2023-01-08T04:57:51.369Z,79.11
2023-01-08T04:58:51.322Z,79.31
2023-01-08T04:59:51.313Z,79.41
2023-01-08T05:00:51.363Z,79.21
2023-01-08T05:01:51.467Z,79.21
2023-01-08T05:02:51.427Z,79.31
2023-01-08T05:03:51.300Z,79.11
2023-01-08T05:04:51.272Z,79.11
2023-01-08T05:05:51.249Z,79.31
2023-01-08T05:06:51.245Z,79.41
2023-01-08T05:07:51.233Z,79.52
2023-01-08T05:08:51.221Z,79.66
2023-01-08T05:09:51.296Z,79.66
2023-01-08T05:10:51.219Z,79.55
2023-01-08T05:11:51.193Z,79.41
2023-01-08T05:12:51.185Z,79.21
2023-01-08T05:13:51.147Z,79.45
2023-01-08T05:14:51.153Z,79.55
2023-01-08T05:15:51.220Z,79.55
2023-01-08T05:16:51.134Z,79.35
2023-01-08T05:17:51.111Z,79.25
2023-01-08T05:18:51.182Z,79.14
2023-01-08T05:19:51.074Z,79.04
2023-01-08T05:20:51.095Z,79.25
2023-01-08T05:21:51.097Z,79.14
2023-01-08T05:22:51.049Z,79.25
2023-01-08T05:23:51.037Z,79.25
2023-01-08T05:24:51.050Z,79.14
2023-01-08T05:25:51.055Z,79.14
2023-01-08T05:26:50.994Z,79.25
2023-01-08T05:27:51.008Z,79.14
2023-01-08T05:28:50.992Z,79.25
2023-01-08T05:29:51.032Z,79.25
2023-01-08T05:30:51.017Z,79.25
2023-01-08T05:31:50.996Z,79.35
2023-01-08T05:32:50.931Z,79.25
2023-01-08T05:33:50.971Z,79.14
2023-01-08T05:34:50.918Z,79.14
2023-01-08T05:35:50.893Z,80.07
2023-01-08T05:36:50.878Z,80.44
2023-01-08T05:37:50.964Z,80.00
2023-01-08T05:38:50.888Z,79.69
2023-01-08T05:39:50.839Z,79.48
2023-01-08T05:40:50.839Z,79.86
2023-01-08T05:41:50.830Z,79.30
2023-01-08T05:42:50.856Z,78.14
2023-01-08T05:43:50.843Z,77.58
2023-01-08T05:44:50.802Z,77.48
2023-01-08T05:45:50.804Z,77.14
2023-01-08T05:46:50.776Z,76.48
2023-01-08T05:47:50.766Z,76.07
2023-01-08T05:48:50.786Z,75.73
2023-01-08T05:49:50.832Z,75.42
2023-01-08T05:50:50.725Z,75.21
2023-01-08T05:51:50.733Z,74.87
2023-01-08T05:52:50.683Z,74.77
2023-01-08T05:53:50.745Z,74.67
2023-01-08T05:54:50.674Z,74.57
2023-01-08T05:55:50.702Z,74.57
2023-01-08T05:56:50.641Z,74.46
2023-01-08T05:57:50.634Z,74.32
2023-01-08T05:58:50.613Z,74.22
2023-01-08T05:59:50.644Z,74.26
2023-01-08T06:00:50.606Z,74.12
2023-01-08T06:01:50.611Z,74.02
2023-01-08T06:02:50.620Z,74.02
2023-01-08T06:03:50.581Z,73.91
2023-01-08T06:04:50.546Z,73.91
2023-01-08T06:05:50.610Z,73.91
2023-01-08T06:06:50.543Z,73.91
2023-01-08T06:07:50.506Z,74.02
2023-01-08T06:08:50.522Z,74.02
2023-01-08T06:09:50.515Z,74.02
2023-01-08T06:10:50.530Z,74.12
2023-01-08T06:11:50.519Z,74.02
2023-01-08T06:12:50.457Z,74.02
2023-01-08T06:13:50.438Z,74.12
2023-01-08T06:14:50.484Z,74.12
2023-01-08T06:15:50.496Z,74.02
2023-01-08T06:16:50.407Z,73.91
2023-01-08T06:17:50.424Z,73.91
2023-01-08T06:18:50.379Z,73.91
2023-01-08T06:19:50.420Z,73.91
2023-01-08T06:20:50.368Z,73.91
2023-01-08T06:21:50.379Z,74.12
2023-01-08T06:22:50.355Z,74.12
2023-01-08T06:23:50.365Z,74.12
2023-01-08T06:24:50.328Z,74.12
2023-01-08T06:25:50.302Z,74.12
2023-01-08T06:26:50.299Z,74.12
2023-01-08T06:27:50.334Z,74.22
2023-01-08T06:28:50.309Z,74.32
2023-01-08T06:29:50.252Z,74.43
2023-01-08T06:30:50.316Z,74.43
2023-01-08T06:31:50.246Z,74.32
2023-01-08T06:32:50.253Z,74.32
2023-01-08T06:33:50.242Z,74.22
2023-01-08T06:34:50.210Z,74.12
2023-01-08T06:35:50.184Z,74.12
2023-01-08T06:36:50.186Z,74.12
2023-01-08T06:37:50.192Z,74.22
2023-01-08T06:38:50.183Z,74.12
2023-01-08T06:39:50.176Z,74.02
2023-01-08T06:40:50.135Z,73.81
2023-01-08T06:41:50.165Z,73.91
2023-01-08T06:42:50.152Z,73.91
2023-01-08T06:43:50.107Z,74.02
2023-01-08T06:44:50.104Z,74.02
2023-01-08T06:45:50.112Z,73.81
2023-01-08T06:46:50.098Z,73.81
2023-01-08T06:47:50.090Z,73.71
2023-01-08T06:48:50.052Z,73.61
2023-01-08T06:49:50.055Z,73.61
2023-01-08T06:50:50.026Z,73.71
2023-01-08T06:51:50.009Z,73.71
2023-01-08T06:52:50.032Z,73.71
2023-01-08T06:53:50.086Z,73.30
2023-01-08T06:54:49.978Z,73.40
2023-01-08T06:55:49.960Z,73.40
2023-01-08T06:56:54.117Z,73.19
2023-01-08T06:57:49.938Z,73.10
2023-01-08T06:58:49.940Z,73.10
2023-01-08T06:59:49.983Z,73.10
2023-01-08T07:00:49.888Z,73.10
2023-01-08T07:01:50.045Z,73.19
2023-01-08T07:02:50.002Z,73.30
2023-01-08T07:03:49.871Z,73.30
2023-01-08T07:04:49.909Z,73.30
2023-01-08T07:05:49.884Z,72.99
2023-01-08T07:06:49.822Z,72.89
2023-01-08T07:07:49.814Z,72.89
2023-01-08T07:08:49.831Z,72.78
2023-01-08T07:09:49.794Z,72.89
2023-01-08T07:10:49.843Z,72.99
2023-01-08T07:11:49.817Z,72.99
2023-01-08T07:12:49.801Z,73.10
2023-01-08T07:13:49.834Z,73.19
2023-01-08T07:14:49.721Z,73.40
2023-01-08T07:15:49.852Z,73.19
2023-01-08T07:16:49.712Z,72.89
2023-01-08T07:17:49.779Z,72.78
2023-01-08T07:18:49.697Z,72.68
2023-01-08T07:19:49.693Z,72.78
2023-01-08T07:20:49.674Z,72.89
2023-01-08T07:21:49.652Z,72.78
2023-01-08T07:22:49.693Z,72.38
2023-01-08T07:23:49.667Z,71.97
2023-01-08T07:24:49.636Z,72.06
2023-01-08T07:25:49.605Z,72.17
2023-01-08T07:26:49.642Z,71.76
2023-01-08T07:27:49.601Z,71.66
2023-01-08T07:28:49.605Z,71.66
2023-01-08T07:29:49.567Z,71.86
2023-01-08T07:30:49.559Z,71.66
2023-01-08T07:31:49.526Z,71.55
2023-01-08T07:32:49.525Z,71.66
2023-01-08T07:33:49.568Z,71.86
2023-01-08T07:34:49.498Z,71.55
2023-01-08T07:35:49.501Z,71.76
2023-01-08T07:36:49.511Z,71.66
2023-01-08T07:37:49.481Z,71.04
2023-01-08T07:38:49.521Z,71.04
2023-01-08T07:39:49.462Z,71.14
2023-01-08T07:40:49.449Z,70.84
2023-01-08T07:41:49.445Z,70.94
2023-01-08T07:42:49.450Z,71.04
2023-01-08T07:43:49.455Z,70.94
2023-01-08T07:44:49.406Z,70.73
2023-01-08T07:45:49.421Z,70.84
2023-01-08T07:46:49.470Z,70.84
2023-01-08T07:47:49.347Z,70.73
2023-01-08T07:48:49.329Z,70.63
2023-01-08T07:49:49.347Z,70.73
2023-01-08T07:50:49.342Z,70.63
2023-01-08T07:51:49.363Z,70.29
2023-01-08T07:52:49.313Z,70.18
2023-01-08T07:53:49.286Z,70.18
2023-01-08T07:54:49.313Z,69.98
2023-01-08T07:55:49.314Z,69.88
2023-01-08T07:56:49.242Z,69.67
2023-01-08T07:57:49.256Z,69.57
2023-01-08T07:58:49.252Z,69.47
2023-01-08T07:59:49.222Z,69.47
2023-01-08T08:00:49.211Z,69.47
2023-01-08T08:01:49.283Z,69.33
2023-01-08T08:02:49.384Z,69.47
2023-01-08T08:03:49.207Z,69.47
2023-01-08T08:04:49.169Z,69.67
2023-01-08T08:05:49.161Z,69.78
2023-01-08T08:06:49.137Z,69.98
2023-01-08T08:07:49.139Z,69.88
2023-01-08T08:08:49.192Z,69.98
2023-01-08T08:09:49.106Z,70.08
2023-01-08T08:10:49.096Z,70.08
2023-01-08T08:11:49.108Z,70.29
2023-01-08T08:12:49.108Z,70.60
2023-01-08T08:13:50.713Z,70.90
2023-01-08T08:14:49.070Z,70.60
2023-01-08T08:15:49.059Z,70.50
2023-01-08T08:16:49.026Z,70.60
2023-01-08T08:17:49.024Z,70.60
2023-01-08T08:18:48.994Z,70.90
2023-01-08T08:19:49.044Z,70.80
2023-01-08T08:20:49.005Z,70.90
2023-01-08T08:21:48.978Z,71.11
2023-01-08T08:22:48.983Z,70.87
2023-01-08T08:23:48.927Z,70.77
2023-01-08T08:24:48.963Z,70.67
2023-01-08T08:25:48.930Z,71.18
2023-01-08T08:26:48.912Z,71.39
2023-01-08T08:27:48.921Z,71.48
2023-01-08T08:28:48.881Z,71.11
2023-01-08T08:29:48.857Z,71.01
2023-01-08T08:30:48.902Z,70.80
2023-01-08T08:31:48.846Z,70.80
2023-01-08T08:32:48.843Z,70.67
2023-01-08T08:33:48.849Z,70.87
2023-01-08T08:34:48.818Z,70.67
2023-01-08T08:35:48.791Z,70.56
2023-01-08T08:36:48.832Z,70.26
2023-01-08T08:37:48.805Z,70.36
2023-01-08T08:38:48.757Z,69.84
2023-01-08T08:39:48.745Z,69.64
2023-01-08T08:40:48.745Z,69.02
2023-01-08T08:41:48.741Z,68.30
2023-01-08T08:42:48.795Z,68.41
2023-01-08T08:43:48.724Z,67.90
2023-01-08T08:44:48.694Z,67.69
2023-01-08T08:45:48.663Z,67.86
2023-01-08T08:46:48.770Z,67.35
2023-01-08T08:47:48.667Z,67.35
2023-01-08T08:48:48.653Z,66.84
2023-01-08T08:49:48.673Z,66.53
2023-01-08T08:50:48.629Z,66.33
2023-01-08T08:51:48.634Z,66.33
2023-01-08T08:52:48.611Z,66.02
2023-01-08T08:53:48.642Z,66.12
2023-01-08T08:54:48.588Z,66.22
2023-01-08T08:55:48.577Z,66.33
2023-01-08T08:56:48.568Z,65.92
2023-01-08T08:57:48.599Z,65.92
2023-01-08T08:58:48.559Z,66.12
2023-01-08T08:59:48.587Z,65.92
2023-01-08T09:00:48.515Z,65.81
2023-01-08T09:01:48.588Z,65.81
2023-01-08T09:02:48.582Z,66.02
2023-01-08T09:03:48.522Z,65.92
2023-01-08T09:04:48.469Z,66.12
2023-01-08T09:05:48.550Z,65.61
2023-01-08T09:06:48.457Z,65.71
2023-01-08T09:07:48.419Z,65.71
2023-01-08T09:08:48.422Z,65.71
2023-01-08T09:09:48.423Z,65.81
2023-01-08T09:10:48.434Z,65.95
2023-01-08T09:11:48.438Z,66.05
2023-01-08T09:12:48.424Z,66.25
2023-01-08T09:13:48.367Z,66.16
2023-01-08T09:14:48.360Z,66.05
2023-01-08T09:15:48.371Z,66.16
2023-01-08T09:16:48.340Z,66.25
2023-01-08T09:17:48.363Z,66.25
2023-01-08T09:18:48.305Z,66.36
2023-01-08T09:19:48.324Z,66.46
2023-01-08T09:20:48.305Z,66.36
2023-01-08T09:21:48.275Z,66.56
2023-01-08T09:22:48.262Z,66.36
2023-01-08T09:23:48.230Z,66.56
2023-01-08T09:24:48.265Z,66.46
2023-01-08T09:25:48.277Z,66.46
2023-01-08T09:26:48.193Z,66.56
2023-01-08T09:27:48.217Z,66.46
2023-01-08T09:28:48.207Z,66.56
2023-01-08T09:29:48.167Z,66.36
2023-01-08T09:30:48.173Z,66.53
2023-01-08T09:31:48.245Z,66.53
2023-01-08T09:32:48.177Z,66.43
2023-01-08T09:33:48.162Z,66.33
2023-01-08T09:34:48.139Z,66.33
2023-01-08T09:35:48.104Z,66.43
2023-01-08T09:36:48.142Z,66.43
2023-01-08T09:37:48.090Z,66.33
2023-01-08T09:38:48.105Z,66.53
2023-01-08T09:39:54.196Z,66.43
2023-01-08T09:40:49.057Z,66.33
2023-01-08T09:41:48.052Z,66.43
2023-01-08T09:42:48.099Z,66.33
2023-01-08T09:43:48.056Z,66.43
2023-01-08T09:44:48.000Z,66.74
2023-01-08T09:45:47.999Z,66.74
2023-01-08T09:46:48.057Z,66.63
2023-01-08T09:47:47.949Z,66.84
2023-01-08T09:48:47.988Z,66.97
2023-01-08T09:49:47.960Z,67.18
2023-01-08T09:50:47.988Z,67.49
2023-01-08T09:51:47.930Z,67.49
2023-01-08T09:52:47.921Z,67.49
2023-01-08T09:53:47.922Z,67.49
2023-01-08T09:54:47.895Z,67.69
2023-01-08T09:55:48.996Z,67.90
2023-01-08T09:56:47.943Z,68.00
2023-01-08T09:57:47.895Z,68.00
2023-01-08T09:58:47.847Z,68.10
2023-01-08T09:59:47.801Z,68.10
2023-01-08T10:00:47.896Z,68.21
2023-01-08T10:01:47.955Z,68.21
2023-01-08T10:02:47.910Z,68.10
2023-01-08T10:03:47.793Z,68.21
2023-01-08T10:04:47.765Z,68.21
2023-01-08T10:05:47.768Z,68.21
2023-01-08T10:06:47.741Z,68.30
2023-01-08T10:07:47.753Z,68.30
2023-01-08T10:08:47.776Z,68.21
2023-01-08T10:09:47.767Z,68.30
2023-01-08T10:10:47.687Z,68.30
2023-01-08T10:11:47.699Z,68.30
2023-01-08T10:12:47.756Z,68.21
2023-01-08T10:13:47.657Z,68.51
2023-01-08T10:14:47.655Z,68.51
2023-01-08T10:15:47.633Z,68.51
2023-01-08T10:16:47.645Z,68.51
2023-01-08T10:17:47.626Z,68.62
2023-01-08T10:18:47.690Z,68.72
2023-01-08T10:19:47.600Z,68.62
2023-01-08T10:20:47.635Z,68.62
2023-01-08T10:21:47.565Z,68.62
2023-01-08T10:22:47.622Z,68.62
2023-01-08T10:23:47.566Z,68.62
2023-01-08T10:24:47.525Z,68.72
2023-01-08T10:25:47.580Z,68.72
2023-01-08T10:26:47.590Z,68.72
2023-01-08T10:27:47.542Z,68.72
2023-01-08T10:28:47.486Z,68.72
2023-01-08T10:29:47.472Z,68.51
2023-01-08T10:30:47.460Z,68.62
2023-01-08T10:31:47.583Z,68.82
2023-01-08T10:32:47.467Z,68.62
2023-01-08T10:33:47.449Z,68.62
2023-01-08T10:34:47.403Z,68.48
2023-01-08T10:35:47.399Z,68.27
2023-01-08T10:36:47.416Z,68.38
2023-01-08T10:37:47.432Z,68.48
2023-01-08T10:38:47.386Z,68.48
2023-01-08T10:39:47.361Z,68.38
2023-01-08T10:40:47.341Z,68.48
2023-01-08T10:41:47.323Z,68.38
2023-01-08T10:42:47.367Z,68.17
2023-01-08T10:43:47.313Z,68.17
2023-01-08T10:44:47.310Z,68.07
2023-01-08T10:45:47.380Z,67.94
2023-01-08T10:46:47.314Z,67.83
2023-01-08T10:47:47.262Z,67.52
2023-01-08T10:48:47.282Z,67.63
2023-01-08T10:49:47.278Z,67.83
2023-01-08T10:50:47.233Z,67.83
2023-01-08T10:51:47.290Z,67.73
2023-01-08T10:52:47.237Z,67.73
2023-01-08T10:53:47.186Z,67.63
2023-01-08T10:54:47.186Z,67.43
2023-01-08T10:55:47.219Z,67.29
2023-01-08T10:56:47.210Z,67.29
2023-01-08T10:57:47.147Z,67.29
2023-01-08T10:58:47.158Z,67.29
2023-01-08T10:59:47.129Z,67.19
2023-01-08T11:00:47.151Z,67.19
2023-01-08T11:01:47.305Z,67.40
2023-01-08T11:02:47.124Z,67.40
2023-01-08T11:03:47.079Z,67.19
2023-01-08T11:04:47.106Z,67.08
2023-01-08T11:05:47.068Z,66.85
2023-01-08T11:06:47.083Z,66.64
2023-01-08T11:07:47.038Z,66.64
2023-01-08T11:08:47.021Z,66.34
2023-01-08T11:09:47.007Z,66.44
2023-01-08T11:10:46.986Z,66.44
2023-01-08T11:11:46.998Z,66.54
2023-01-08T11:12:47.020Z,66.54
2023-01-08T11:13:46.951Z,66.44
2023-01-08T11:14:46.938Z,66.64
2023-01-08T11:15:46.962Z,66.85
2023-01-08T11:16:46.956Z,66.88
2023-01-08T11:17:46.927Z,67.08
2023-01-08T11:18:46.990Z,66.98
2023-01-08T11:19:46.893Z,67.19
2023-01-08T11:20:46.883Z,67.49
2023-01-08T11:21:46.891Z,67.29
2023-01-08T11:22:46.867Z,67.29
2023-01-08T11:23:46.842Z,67.40
2023-01-08T11:24:46.874Z,67.40
2023-01-08T11:25:46.836Z,67.29
2023-01-08T11:26:46.832Z,67.29
2023-01-08T11:27:46.858Z,67.60
2023-01-08T11:28:46.793Z,67.70
2023-01-08T11:29:46.796Z,67.60
2023-01-08T11:30:46.777Z,67.49
2023-01-08T11:31:46.829Z,67.49
2023-01-08T11:32:46.749Z,67.70
2023-01-08T11:33:46.756Z,67.80
2023-01-08T11:34:46.751Z,67.94
2023-01-08T11:35:46.737Z,67.94
2023-01-08T11:36:46.684Z,68.04
2023-01-08T11:37:46.687Z,67.80
2023-01-08T11:38:46.696Z,67.60
2023-01-08T11:39:46.715Z,67.49
2023-01-08T11:40:46.641Z,67.60
2023-01-08T11:41:46.675Z,67.60
2023-01-08T11:42:46.639Z,67.70
2023-01-08T11:43:46.621Z,67.49
2023-01-08T11:44:46.613Z,67.49
2023-01-08T11:45:46.707Z,67.49
2023-01-08T11:46:46.604Z,67.49
2023-01-08T11:47:46.571Z,67.60
2023-01-08T11:48:46.571Z,67.70
2023-01-08T11:49:46.539Z,67.70
2023-01-08T11:50:46.551Z,67.60
2023-01-08T11:51:46.552Z,67.70
2023-01-08T11:52:46.532Z,67.57
2023-01-08T11:53:46.523Z,67.46
2023-01-08T11:54:46.479Z,67.46
2023-01-08T11:55:46.504Z,67.57
2023-01-08T11:56:46.462Z,67.70
2023-01-08T11:57:46.450Z,68.01
2023-01-08T11:58:46.493Z,68.41
2023-01-08T11:59:46.422Z,68.41
2023-01-08T12:00:46.431Z,68.32
2023-01-08T12:01:46.492Z,68.21
2023-01-08T12:02:46.395Z,68.21
2023-01-08T12:03:46.385Z,68.21
2023-01-08T12:04:46.395Z,68.21
2023-01-08T12:05:46.366Z,68.32
2023-01-08T12:06:46.382Z,68.32
2023-01-08T12:07:46.336Z,68.32
2023-01-08T12:08:46.336Z,68.45
2023-01-08T12:09:46.370Z,68.76
2023-01-08T12:10:46.380Z,68.96
2023-01-08T12:11:46.328Z,68.76
2023-01-08T12:12:46.273Z,68.96
2023-01-08T12:13:46.274Z,69.17
2023-01-08T12:14:46.295Z,69.37
2023-01-08T12:15:46.258Z,69.17
2023-01-08T12:16:46.305Z,69.17
2023-01-08T12:17:46.221Z,69.27
2023-01-08T12:18:46.219Z,69.17
2023-01-08T12:19:46.205Z,69.37
2023-01-08T12:20:46.218Z,69.57
2023-01-08T12:21:46.168Z,69.47
2023-01-08T12:22:46.158Z,69.47
2023-01-08T12:23:46.166Z,69.27
2023-01-08T12:24:46.140Z,69.37
2023-01-08T12:25:46.145Z,69.51
2023-01-08T12:26:46.164Z,69.57
2023-01-08T12:27:56.823Z,69.71
2023-01-08T12:28:47.141Z,69.71
2023-01-08T12:29:46.112Z,69.92
2023-01-08T12:30:46.091Z,70.02
2023-01-08T12:31:48.690Z,70.02
2023-01-08T12:32:47.113Z,70.02
2023-01-08T12:33:46.072Z,70.22
2023-01-08T12:34:46.022Z,70.12
2023-01-08T12:35:46.022Z,70.32
2023-01-08T12:36:46.010Z,70.32
2023-01-08T12:37:46.017Z,70.43
2023-01-08T12:38:46.015Z,70.43
2023-01-08T12:39:45.972Z,70.32
2023-01-08T12:40:45.985Z,70.64
2023-01-08T12:41:45.952Z,70.53
2023-01-08T12:42:47.433Z,71.04
2023-01-08T12:43:45.976Z,71.25
2023-01-08T12:44:45.903Z,71.15
2023-01-08T12:45:45.900Z,71.25
2023-01-08T12:46:45.906Z,71.04
2023-01-08T12:47:45.886Z,71.15
2023-01-08T12:48:45.927Z,71.25
2023-01-08T12:49:45.899Z,71.22
2023-01-08T12:50:45.862Z,70.60
2023-01-08T12:51:45.814Z,70.40
2023-01-08T12:52:45.842Z,70.43